Time;durP1;ratioP1;P1;durP2;ratioP2;P2;SDS_P1;SDS_P2;PMS_P1;PMS_P2;Temp;Humidity;BMP_temperature;BMP_pressure;BME280_temperature;BME280_humidity;BME280_pressure;Samples;Min_cycle;Max_cycle;Signal;HPM_P1;HPM_P2
2022/03/06 00:02:21;;;;;;;4.07;1.30;;;1.80;99.90;;;0.16;79.15;102325.94;4994237;28;20042;-76
2022/03/06 00:04:47;;;;;;;5.07;1.30;;;1.70;99.90;;;0.13;79.20;102322.38;4975209;28;20467;-75
2022/03/06 00:07:13;;;;;;;3.03;1.25;;;1.70;99.90;;;-0.03;79.71;102321.19;4972359;28;20794;-76
2022/03/06 00:09:45;;;;;;;5.03;1.15;;;1.60;99.90;;;-0.10;79.88;102325.34;4933115;28;20042;-78
2022/03/06 00:12:11;;;;;;;5.28;1.33;;;1.60;99.90;;;-0.02;79.33;102322.94;4960680;28;20045;-77
2022/03/06 00:14:38;;;;;;;3.22;1.05;;;1.60;99.90;;;0.03;79.59;102315.28;4976483;28;20022;-78
2022/03/06 00:17:04;;;;;;;2.33;0.80;;;1.60;99.90;;;0.05;79.04;102314.47;4981411;28;20065;-78
2022/03/06 00:19:30;;;;;;;6.38;1.27;;;1.60;99.90;;;0.09;79.25;102318.00;4954930;28;20038;-79
2022/03/06 00:21:56;;;;;;;4.05;0.98;;;1.60;99.90;;;0.07;79.86;102312.78;4952744;28;20157;-76
2022/03/06 00:24:24;;;;;;;4.15;1.25;;;1.60;99.90;;;0.08;79.35;102318.84;4954064;28;20093;-76
2022/03/06 00:26:50;;;;;;;3.45;0.77;;;1.60;99.90;;;0.06;79.46;102310.16;4969407;28;20438;-76
2022/03/06 00:29:16;;;;;;;3.97;1.00;;;1.60;99.90;;;0.05;79.95;102314.47;4970351;28;20031;-76
2022/03/06 00:31:42;;;;;;;4.10;0.98;;;1.60;99.90;;;0.05;79.98;102309.28;4972305;28;20034;-75
2022/03/06 00:34:08;;;;;;;2.65;0.88;;;1.60;99.90;;;0.05;80.18;102298.91;4975384;28;20048;-76
2022/03/06 00:36:37;;;;;;;3.22;1.05;;;1.60;99.90;;;0.04;80.41;102298.88;4966826;28;20050;-76
2022/03/06 00:39:04;;;;;;;4.40;1.00;;;1.60;99.90;;;0.02;80.53;102304.03;4968114;28;20034;-76
2022/03/06 00:41:31;;;;;;;2.63;0.55;;;1.50;99.90;;;-0.08;79.40;102302.94;4970708;28;20042;-76
2022/03/06 00:43:57;;;;;;;2.42;0.60;;;1.50;99.90;;;-0.06;78.50;102295.22;4970022;28;20038;-77
2022/03/06 00:46:23;;;;;;;2.22;0.57;;;1.60;99.90;;;0.00;77.29;102295.38;4971702;28;20033;-76
2022/03/06 00:48:49;;;;;;;1.98;0.57;;;1.60;99.90;;;0.00;75.63;102292.78;4970326;28;20117;-75
2022/03/06 00:51:16;;;;;;;2.28;0.50;;;1.60;99.90;;;0.08;75.33;102292.94;4943977;28;20034;-75
2022/03/06 00:53:43;;;;;;;4.38;0.90;;;1.70;99.90;;;0.15;75.44;102290.53;4968275;28;20027;-76
2022/03/06 00:56:09;;;;;;;2.33;0.57;;;1.70;99.90;;;0.19;75.43;102292.34;4969889;28;20510;-76
2022/03/06 00:58:37;;;;;;;3.78;0.90;;;1.70;99.90;;;0.23;75.60;102300.16;4970979;28;20026;-76
2022/03/06 01:01:04;;;;;;;4.38;1.25;;;1.70;99.90;;;0.13;75.91;102299.06;4970950;28;20027;-75
2022/03/06 01:03:31;;;;;;;5.45;0.77;;;1.70;99.90;;;0.21;75.90;102292.34;4960932;28;20077;-75
2022/03/06 01:05:57;;;;;;;2.20;0.80;;;1.70;99.90;;;0.26;75.68;102297.63;4963651;28;20138;-76
2022/03/06 01:08:24;;;;;;;3.85;0.95;;;1.80;99.90;;;0.25;75.55;102301.06;4979250;28;20050;-76
2022/03/06 01:10:52;;;;;;;1.98;0.80;;;1.80;99.90;;;0.25;76.08;102301.94;4977010;28;20034;-76
2022/03/06 01:13:20;;;;;;;7.45;0.80;;;1.80;99.90;;;0.22;75.55;102301.88;4977074;28;21035;-75
2022/03/06 01:15:47;;;;;;;2.42;0.85;;;1.80;99.90;;;0.20;76.04;102309.63;4959435;28;20022;-76
2022/03/06 01:18:14;;;;;;;2.33;0.80;;;1.80;99.90;;;0.21;75.94;102310.47;4950489;28;20035;-76
2022/03/06 01:20:41;;;;;;;2.17;0.85;;;1.80;99.90;;;0.22;75.86;102306.16;4969008;28;20453;-75
2022/03/06 01:23:08;;;;;;;1.92;0.60;;;1.80;99.90;;;0.11;75.17;102308.53;4970624;28;20459;-75
2022/03/06 01:25:34;;;;;;;2.90;0.50;;;1.70;99.90;;;0.02;73.12;102309.19;4991186;28;20023;-76
2022/03/06 01:28:02;;;;;;;5.30;0.70;;;1.70;99.90;;;0.09;72.77;102305.94;4969659;28;20190;-75
2022/03/06 01:30:32;;;;;;;1.98;0.60;;;1.70;99.90;;;0.03;73.06;102304.91;4991625;28;20041;-75
2022/03/06 01:33:00;;;;;;;1.23;0.40;;;1.60;99.90;;;-0.09;72.17;102310.69;4970167;28;20031;-75
2022/03/06 01:35:26;;;;;;;1.77;0.40;;;1.70;99.90;;;0.02;71.14;102305.75;4966865;28;20042;-76
2022/03/06 01:37:52;;;;;;;1.27;0.30;;;1.70;99.90;;;0.10;70.58;102306.78;4969384;28;20050;-75
2022/03/06 01:40:19;;;;;;;1.58;0.30;;;1.70;99.90;;;0.22;70.95;102308.75;4970201;28;20042;-75
2022/03/06 01:42:48;;;;;;;4.43;0.50;;;1.70;99.90;;;0.19;70.19;102306.97;4966622;28;20034;-75
2022/03/06 01:45:18;;;;;;;1.80;0.40;;;1.80;99.90;;;0.19;70.31;102302.69;4967709;28;20499;-76
2022/03/06 01:47:48;;;;;;;2.30;0.77;;;1.80;99.90;;;0.27;69.88;102296.78;4969050;28;20038;-75
2022/03/06 01:50:21;;;;;;;8.15;3.88;;;1.80;99.90;;;0.31;70.28;102306.38;4975452;28;20037;-75
2022/03/06 01:52:51;;;;;;;21.38;8.70;;;1.80;99.90;;;0.28;69.99;102307.19;4972051;28;20042;-76
2022/03/06 01:55:19;;;;;;;4.32;2.03;;;1.80;99.90;;;0.25;69.94;102309.72;4968346;28;20065;-75
2022/03/06 01:57:47;;;;;;;2.17;0.60;;;1.80;99.90;;;0.23;71.22;102313.13;4973765;28;20038;-75
2022/03/06 02:00:22;;;;;;;1.10;0.45;;;1.80;99.90;;;0.25;71.98;102314.88;4971484;28;20030;-75
2022/03/06 02:02:49;;;;;;;1.25;0.40;;;1.80;99.90;;;0.25;73.61;102311.44;4962449;28;20039;-75
2022/03/06 02:05:16;;;;;;;2.60;0.73;;;1.80;99.90;;;0.24;73.91;102304.47;4974952;28;20049;-76
2022/03/06 02:07:42;;;;;;;2.70;0.70;;;1.80;99.90;;;0.24;75.03;102304.47;4971968;28;20026;-76
2022/03/06 02:10:13;;;;;;;0.95;0.50;;;1.80;99.90;;;0.24;75.28;102307.06;4974690;28;20527;-75
2022/03/06 02:12:42;;;;;;;2.47;0.47;;;1.80;99.90;;;0.17;75.73;102301.78;4962940;28;20034;-75
2022/03/06 02:15:11;;;;;;;5.90;0.80;;;1.70;99.90;;;0.12;75.81;102292.16;4976113;28;20114;-75
2022/03/06 02:17:38;;;;;;;2.85;0.93;;;1.70;99.90;;;0.10;75.15;102302.47;4986068;28;20054;-75
2022/03/06 02:20:08;;;;;;;1.65;0.70;;;1.70;99.90;;;0.10;75.15;102294.72;4975004;28;20031;-75
2022/03/06 02:22:38;;;;;;;1.90;0.68;;;1.70;99.90;;;0.09;75.52;102294.69;4972745;28;20406;-75
2022/03/06 02:25:17;;;;;;;4.05;0.70;;;1.70;99.90;;;0.13;74.99;102286.13;4964529;28;20030;-75
2022/03/06 02:27:44;;;;;;;1.77;0.63;;;1.70;99.90;;;0.10;75.45;102281.75;4961117;28;20109;-76
2022/03/06 02:30:15;;;;;;;2.13;0.80;;;1.70;99.90;;;0.12;75.24;102289.56;4970990;28;20450;-75
2022/03/06 02:32:43;;;;;;;2.28;0.50;;;1.70;99.90;;;0.10;75.43;102296.44;4974043;28;20124;-75
2022/03/06 02:35:09;;;;;;;1.30;0.55;;;1.70;99.90;;;0.10;75.56;102286.06;4969256;28;20037;-75
2022/03/06 02:37:36;;;;;;;1.48;0.60;;;1.70;99.90;;;0.16;75.05;102279.31;4973518;28;20043;-76
2022/03/06 02:40:07;;;;;;;4.10;0.65;;;1.70;99.90;;;0.18;74.80;102287.97;4972641;28;20019;-75
2022/03/06 02:42:37;;;;;;;1.48;0.68;;;1.70;99.90;;;0.24;74.57;102283.75;4971731;28;20124;-75
2022/03/06 02:45:22;;;;;;;2.45;0.70;;;1.70;99.90;;;0.25;74.78;102281.22;4972509;28;20124;-75
2022/03/06 02:47:50;;;;;;;1.83;0.70;;;1.80;99.90;;;0.26;74.50;102282.06;4971006;28;20034;-75
2022/03/06 02:50:21;;;;;;;2.65;0.60;;;1.70;99.90;;;0.14;74.99;102280.13;4970550;28;20050;-75
2022/03/06 02:52:50;;;;;;;1.45;0.50;;;1.70;99.90;;;0.19;75.03;102281.06;4971466;28;20049;-75
2022/03/06 02:55:17;;;;;;;2.03;0.60;;;1.70;99.90;;;0.19;75.14;102281.06;4968844;28;20057;-75
2022/03/06 02:57:44;;;;;;;3.97;1.10;;;1.70;99.90;;;0.18;75.67;102269.84;4971541;28;20030;-75
2022/03/06 03:00:14;;;;;;;3.85;0.80;;;1.70;99.90;;;0.22;75.27;102272.50;4972423;28;20038;-75
2022/03/06 03:02:41;;;;;;;2.20;0.60;;;1.70;99.90;;;0.22;75.11;102272.50;4971639;28;20029;-76
2022/03/06 03:05:12;;;;;;;3.13;0.50;;;1.70;99.90;;;0.23;75.34;102269.06;4971501;28;20061;-75
2022/03/06 03:07:44;;;;;;;4.20;0.65;;;1.70;99.90;;;0.22;76.08;102269.91;4972509;28;20647;-75
2022/03/06 03:10:14;;;;;;;4.03;0.65;;;1.70;99.90;;;0.18;75.40;102269.84;4972139;28;20110;-75
2022/03/06 03:12:42;;;;;;;2.50;0.60;;;1.70;99.90;;;0.10;75.27;102273.97;4983441;28;20037;-75
2022/03/06 03:15:10;;;;;;;1.10;0.60;;;1.70;99.90;;;0.13;74.57;102265.41;4974078;28;20038;-75
2022/03/06 03:17:38;;;;;;;3.28;0.80;;;1.70;99.90;;;0.17;73.69;102269.81;4970323;28;20041;-75
2022/03/06 03:20:06;;;;;;;1.95;0.80;;;1.70;99.90;;;0.17;73.46;102260.34;4970536;28;20665;-75
2022/03/06 03:22:32;;;;;;;4.13;0.80;;;1.70;99.90;;;0.19;73.91;102258.66;4967430;28;20053;-75
2022/03/06 03:24:58;;;;;;;2.20;0.68;;;1.70;99.90;;;0.22;73.94;102260.44;4973870;28;20033;-75
2022/03/06 03:27:24;;;;;;;7.68;1.00;;;1.80;99.90;;;0.22;73.51;102257.84;4972602;28;20054;-75
2022/03/06 03:29:50;;;;;;;3.58;0.90;;;1.70;99.90;;;0.23;74.10;102261.31;4987816;28;20034;-75
2022/03/06 03:32:17;;;;;;;3.30;0.90;;;1.70;99.90;;;0.19;74.47;102266.44;4973193;28;20141;-75
2022/03/06 03:34:43;;;;;;;0.60;0.60;;;1.70;99.90;;;0.11;75.05;102264.50;4971923;28;20106;-75
2022/03/06 03:37:09;;;;;;;1.88;0.85;;;1.70;99.90;;;0.07;76.67;102271.34;4943847;28;20131;-75
2022/03/06 03:39:35;;;;;;;1.58;0.93;;;1.50;99.90;;;0.07;76.99;102268.75;4994654;28;20035;-75
2022/03/06 03:42:01;;;;;;;3.15;0.88;;;1.60;99.90;;;0.02;77.14;102272.94;4972558;28;20052;-75
2022/03/06 03:44:27;;;;;;;3.35;0.90;;;1.60;99.90;;;-0.13;77.39;102268.31;4968591;28;20038;-75
2022/03/06 03:46:53;;;;;;;2.28;0.70;;;1.50;99.90;;;-0.10;77.30;102273.56;4973448;28;20052;-74
2022/03/06 03:49:19;;;;;;;2.65;0.70;;;1.50;99.90;;;-0.05;77.45;102268.47;4963041;28;20047;-75
2022/03/06 03:51:45;;;;;;;5.95;1.08;;;1.50;99.90;;;-0.03;77.29;102266.78;4970846;28;20535;-75
2022/03/06 03:54:13;;;;;;;3.30;0.80;;;1.50;99.90;;;-0.05;77.30;102266.75;4993801;28;20042;-75
2022/03/06 03:56:39;;;;;;;2.13;0.70;;;1.50;99.90;;;-0.01;77.16;102265.13;4977252;28;20041;-75
2022/03/06 03:59:05;;;;;;;1.98;0.90;;;1.50;99.90;;;-0.02;77.47;102264.25;4971437;28;20019;-74
2022/03/06 04:01:31;;;;;;;2.28;1.00;;;1.50;99.90;;;0.02;77.45;102260.00;4970854;28;20122;-75
2022/03/06 04:03:57;;;;;;;1.88;0.90;;;1.60;99.90;;;0.06;77.47;102256.63;4970441;28;20030;-74
2022/03/06 04:06:23;;;;;;;3.85;0.60;;;1.60;99.90;;;0.09;77.48;102261.88;4991104;28;20037;-75
2022/03/06 04:08:49;;;;;;;5.50;1.10;;;1.60;99.90;;;0.10;77.25;102263.63;4981079;28;22990;-74
2022/03/06 04:11:18;;;;;;;1.95;0.85;;;1.60;99.90;;;0.12;77.35;102264.53;4979027;28;20641;-74
2022/03/06 04:13:44;;;;;;;4.53;1.25;;;1.60;99.90;;;0.13;77.17;102262.81;4969492;28;20041;-74
2022/03/06 04:16:10;;;;;;;3.20;1.20;;;1.60;99.90;;;0.13;76.47;102268.88;4965413;28;20037;-75
2022/03/06 04:18:36;;;;;;;3.05;0.90;;;1.60;99.90;;;0.13;77.47;102266.28;4992123;28;20106;-74
2022/03/06 04:21:02;;;;;;;3.25;0.80;;;1.70;99.90;;;0.13;77.08;102262.81;4970011;28;20019;-75
2022/03/06 04:23:28;;;;;;;3.58;0.80;;;1.70;99.90;;;0.12;77.12;102256.75;4983155;28;20033;-74
2022/03/06 04:25:54;;;;;;;1.33;0.77;;;1.70;99.90;;;0.13;77.64;102265.41;4972372;28;20034;-74
2022/03/06 04:28:20;;;;;;;7.18;1.05;;;1.70;99.90;;;0.11;77.93;102262.81;4997266;28;20511;-74
2022/03/06 04:30:46;;;;;;;5.88;1.10;;;1.70;99.90;;;0.13;77.35;102255.03;5006231;28;20090;-74
2022/03/06 04:33:12;;;;;;;6.60;1.05;;;1.60;99.90;;;0.12;77.81;102259.34;4970261;28;20022;-74
2022/03/06 04:35:38;;;;;;;2.53;0.90;;;1.70;99.90;;;0.12;78.02;102256.75;4971114;28;20024;-75
2022/03/06 04:38:04;;;;;;;1.88;0.98;;;1.60;99.90;;;0.10;78.43;102255.84;4968537;28;20081;-74
2022/03/06 04:40:30;;;;;;;5.65;0.80;;;1.60;99.90;;;0.09;78.30;102251.53;4971713;28;20040;-74
2022/03/06 04:42:56;;;;;;;3.97;0.90;;;1.60;99.90;;;0.08;78.27;102252.34;4991127;28;20030;-75
2022/03/06 04:45:24;;;;;;;1.98;1.00;;;1.70;99.90;;;0.08;78.52;102249.75;4966831;28;20022;-74
2022/03/06 04:47:50;;;;;;;2.25;0.90;;;1.60;99.90;;;0.10;78.35;102247.22;4973030;28;20034;-74
2022/03/06 04:50:16;;;;;;;3.80;1.23;;;1.60;99.90;;;0.10;78.71;102249.81;4967916;28;20531;-74
2022/03/06 04:52:42;;;;;;;2.53;1.00;;;1.60;99.90;;;0.11;78.85;102246.34;4966737;28;20031;-75
2022/03/06 04:55:08;;;;;;;4.88;1.00;;;1.60;99.90;;;0.11;78.72;102247.25;4968040;28;20670;-75
2022/03/06 04:57:34;;;;;;;1.88;0.80;;;1.60;99.90;;;0.10;78.48;102242.91;4959048;28;20042;-74
2022/03/06 05:00:00;;;;;;;2.83;0.70;;;1.60;99.90;;;0.11;78.44;102243.78;4966351;28;20712;-74
2022/03/06 05:02:26;;;;;;;5.40;1.02;;;1.60;99.90;;;0.12;77.80;102243.81;4952705;28;20050;-74
2022/03/06 05:04:52;;;;;;;1.70;0.82;;;1.60;99.90;;;0.15;77.95;102253.34;4966518;28;20103;-74
2022/03/06 05:07:18;;;;;;;5.25;0.98;;;1.60;99.90;;;0.13;77.78;102247.28;4972535;28;20034;-74
2022/03/06 05:09:44;;;;;;;1.38;0.88;;;1.70;99.90;;;0.13;78.09;102249.84;4970637;28;20113;-74
2022/03/06 05:12:10;;;;;;;5.13;1.08;;;1.60;99.90;;;0.01;77.74;102253.06;4969850;28;20088;-75
2022/03/06 05:14:36;;;;;;;3.15;1.25;;;1.60;99.90;;;0.06;78.30;102254.03;4968665;28;20387;-74
2022/03/06 05:17:02;;;;;;;2.88;0.88;;;1.60;99.90;;;0.03;77.88;102253.97;4970060;28;20184;-74
2022/03/06 05:19:29;;;;;;;6.57;1.25;;;1.60;99.90;;;0.07;78.14;102258.41;4969502;28;20105;-74
2022/03/06 05:21:54;;;;;;;3.20;1.17;;;1.60;99.90;;;0.06;78.08;102251.44;4966868;28;20037;-74
2022/03/06 05:24:21;;;;;;;4.47;0.80;;;1.60;99.90;;;0.07;78.02;102254.94;4966925;28;20029;-74
2022/03/06 05:26:47;;;;;;;4.78;0.93;;;1.60;99.90;;;0.05;78.60;102247.13;4974156;28;20042;-75
2022/03/06 05:29:13;;;;;;;1.90;1.00;;;1.60;99.90;;;0.05;78.12;102238.50;4960298;28;20018;-74
2022/03/06 05:31:39;;;;;;;2.30;0.85;;;1.60;99.90;;;0.04;77.40;102247.94;4968890;28;20048;-74
2022/03/06 05:34:05;;;;;;;1.95;0.90;;;1.60;99.90;;;0.04;77.75;102239.31;4969595;28;20038;-74
2022/03/06 05:36:31;;;;;;;3.58;1.40;;;1.60;99.90;;;0.05;78.65;102243.66;4968235;28;20654;-74
2022/03/06 05:38:57;;;;;;;2.65;0.93;;;1.60;99.90;;;0.05;79.37;102244.53;4970046;28;20030;-74
2022/03/06 05:41:23;;;;;;;3.80;1.10;;;1.60;99.90;;;0.05;79.85;102236.75;4957827;28;20476;-74
2022/03/06 05:43:49;;;;;;;1.38;0.80;;;1.60;99.90;;;0.05;80.03;102235.91;4988150;28;20068;-74
2022/03/06 05:46:15;;;;;;;3.38;0.90;;;1.60;99.90;;;0.04;80.67;102241.91;4970625;28;20023;-74
2022/03/06 05:48:41;;;;;;;5.78;1.08;;;1.60;99.90;;;0.02;80.81;102230.63;4969069;28;20027;-74
2022/03/06 05:51:07;;;;;;;3.45;1.20;;;1.50;99.90;;;0.02;80.68;102233.22;4921254;28;1301843;-74
2022/03/06 05:53:33;;;;;;;2.83;1.10;;;1.60;99.90;;;0.04;80.97;102229.81;4970700;28;20034;-74
2022/03/06 05:55:59;;;;;;;6.32;1.33;;;1.60;99.90;;;0.06;80.68;102230.72;4970073;28;20015;-74
2022/03/06 05:58:25;;;;;;;3.58;1.17;;;1.60;99.90;;;0.06;80.79;102233.31;4960177;28;20046;-75
2022/03/06 06:00:51;;;;;;;2.38;1.23;;;1.60;99.90;;;0.08;81.26;102231.63;4967306;28;20046;-74
2022/03/06 06:03:18;;;;;;;3.60;1.25;;;1.60;99.90;;;0.09;81.37;102227.34;4983914;28;20069;-74
2022/03/06 06:05:44;;;;;;;4.60;1.20;;;1.60;99.90;;;0.08;81.09;102220.41;4976586;28;20091;-74
2022/03/06 06:08:10;;;;;;;7.57;1.70;;;1.60;99.90;;;0.08;81.58;102226.44;4970110;28;20678;-74
2022/03/06 06:10:37;;;;;;;5.18;1.33;;;1.60;99.90;;;0.06;81.57;102220.38;4967781;28;20116;-74
2022/03/06 06:13:03;;;;;;;4.57;1.13;;;1.60;99.90;;;0.06;81.23;102219.50;4966165;28;20031;-74
2022/03/06 06:15:29;;;;;;;2.15;1.10;;;1.60;99.90;;;0.03;81.57;102216.88;4965785;28;20077;-79
2022/03/06 06:17:55;;;;;;;2.97;1.20;;;1.60;99.90;;;0.06;81.74;102220.38;4984279;28;20050;-74
2022/03/06 06:20:21;;;;;;;2.78;1.08;;;1.60;99.90;;;0.12;81.23;102222.22;4980568;28;20043;-74
2022/03/06 06:22:48;;;;;;;3.70;1.00;;;1.70;99.90;;;0.14;80.91;102224.00;4976189;28;20042;-74
2022/03/06 06:25:14;;;;;;;3.58;1.15;;;1.70;99.90;;;0.19;81.05;102224.09;4970787;28;20019;-74
2022/03/06 06:27:40;;;;;;;4.93;1.25;;;1.70;99.90;;;0.22;81.03;102223.25;4968203;28;20040;-74
2022/03/06 06:30:07;;;;;;;4.55;1.48;;;1.70;99.90;;;0.26;80.70;102228.56;4968941;28;21012;-74
2022/03/06 06:32:34;;;;;;;2.00;1.00;;;1.70;99.90;;;0.25;80.92;102229.38;4977181;28;20034;-74
2022/03/06 06:34:59;;;;;;;2.50;1.35;;;1.70;99.90;;;0.23;81.70;102230.22;4975243;28;20039;-74
2022/03/06 06:37:26;;;;;;;3.85;1.90;;;1.70;99.90;;;0.22;81.78;102234.53;4966186;28;21197;-74
2022/03/06 06:39:52;;;;;;;4.72;2.33;;;1.70;99.90;;;0.22;82.06;102228.44;4969648;28;20026;-76
2022/03/06 06:42:18;;;;;;;9.20;2.10;;;1.70;99.90;;;0.19;82.15;102230.16;4967946;28;20121;-74
2022/03/06 06:44:44;;;;;;;8.68;2.25;;;1.70;99.90;;;0.18;82.28;102227.53;4963120;28;20102;-74
2022/03/06 06:47:10;;;;;;;6.07;1.92;;;1.70;99.90;;;0.17;82.45;102231.84;4973791;28;20038;-74
2022/03/06 06:49:36;;;;;;;3.15;1.83;;;1.70;99.90;;;0.17;82.69;102226.66;4981441;28;20503;-74
2022/03/06 06:52:03;;;;;;;4.50;1.75;;;1.70;99.90;;;0.19;82.86;102237.03;4973738;28;20031;-74
2022/03/06 06:54:29;;;;;;;4.32;1.80;;;1.70;99.90;;;0.14;82.15;102225.72;4970424;28;20110;-74
2022/03/06 06:56:55;;;;;;;3.80;1.63;;;1.70;99.90;;;0.17;82.08;102230.94;4994479;28;20038;-74
2022/03/06 06:59:21;;;;;;;3.55;1.90;;;2.30;99.90;;;0.18;82.10;102230.13;4973503;28;20030;-74
2022/03/06 07:01:47;;;;;;;2.92;1.75;;;1.70;99.90;;;0.23;82.70;102237.97;4971388;28;20121;-74
2022/03/06 07:04:13;;;;;;;6.85;1.77;;;1.80;99.90;;;0.26;82.99;102227.66;4971369;28;20042;-74
2022/03/06 07:06:39;;;;;;;3.17;2.00;;;1.80;99.90;;;0.30;82.84;102237.25;4995729;28;20118;-74
2022/03/06 07:09:05;;;;;;;3.53;2.03;;;1.80;99.90;;;0.29;82.28;102231.22;4971365;28;20110;-74
2022/03/06 07:11:31;;;;;;;4.53;2.25;;;1.80;99.90;;;0.30;81.70;102239.84;4971336;28;20045;-74
2022/03/06 07:13:57;;;;;;;4.03;2.30;;;1.90;99.90;;;0.38;81.44;102235.69;4971903;28;20031;-74
2022/03/06 07:16:23;;;;;;;3.10;2.28;;;1.90;99.90;;;0.40;80.78;102234.88;4954906;28;20039;-74
2022/03/06 07:18:49;;;;;;;7.07;2.40;;;1.90;99.90;;;0.47;81.60;102238.47;4971896;28;20036;-74
2022/03/06 07:21:15;;;;;;;5.97;2.60;;;2.00;99.90;;;0.54;81.72;102242.94;4964745;28;22581;-74
2022/03/06 07:23:41;;;;;;;6.20;2.70;;;2.00;99.90;;;0.60;82.10;102232.69;4972345;28;20097;-74
2022/03/06 07:26:07;;;;;;;7.68;2.90;;;2.00;99.90;;;0.61;82.13;102239.59;4972662;28;20126;-75
2022/03/06 07:28:34;;;;;;;3.55;2.25;;;2.10;99.90;;;0.65;82.04;102245.72;4976124;28;20121;-74
2022/03/06 07:31:01;;;;;;;4.93;2.63;;;2.10;99.90;;;0.70;81.93;102244.09;4985665;28;20037;-74
2022/03/06 07:33:27;;;;;;;5.80;2.40;;;2.20;99.90;;;0.70;82.20;102244.09;4977558;28;20037;-74
2022/03/06 07:35:53;;;;;;;4.45;2.20;;;2.20;99.90;;;0.69;81.44;102238.84;4974883;28;20034;-74
2022/03/06 07:38:19;;;;;;;8.52;3.80;;;2.20;99.90;;;0.70;81.30;102244.09;4981532;28;20050;-75
2022/03/06 07:40:45;;;;;;;12.45;4.55;;;2.20;99.90;;;0.72;81.05;102244.13;4972103;28;20034;-75
2022/03/06 07:43:11;;;;;;;6.50;2.72;;;2.20;99.90;;;0.71;80.26;102252.72;4972397;28;20027;-74
2022/03/06 07:45:37;;;;;;;3.80;2.50;;;2.30;99.90;;;0.73;80.77;102246.72;4972381;28;20423;-75
2022/03/06 07:48:04;;;;;;;5.90;2.58;;;2.20;99.90;;;0.75;80.77;102246.75;4970482;28;20058;-74
2022/03/06 07:50:30;;;;;;;4.85;2.58;;;2.30;99.90;;;0.78;81.29;102247.69;4970049;28;20157;-75
2022/03/06 07:52:56;;;;;;;8.90;3.42;;;2.30;99.90;;;0.80;81.43;102246.00;4993331;28;20054;-74
2022/03/06 07:55:23;;;;;;;4.22;2.83;;;2.30;99.90;;;0.78;81.35;102252.00;4970570;28;20081;-74
2022/03/06 07:57:49;;;;;;;4.30;2.80;;;2.30;99.90;;;0.79;81.25;102246.84;4970861;28;20042;-75
2022/03/06 08:00:15;;;;;;;4.80;2.60;;;2.30;99.90;;;0.80;81.31;102258.09;4994667;28;20019;-75
2022/03/06 08:02:41;;;;;;;7.57;3.22;;;2.30;99.90;;;0.79;80.58;102254.63;4971313;28;20081;-74
2022/03/06 08:05:09;;;;;;;4.78;2.80;;;2.30;99.90;;;0.83;80.10;102255.56;4969161;28;20113;-75
2022/03/06 08:07:36;;;;;;;6.10;3.10;;;2.30;99.90;;;0.88;79.97;102253.03;4969865;28;20507;-75
2022/03/06 08:10:06;;;;;;;6.53;3.40;;;2.40;99.90;;;0.85;80.02;102253.88;4971483;28;20100;-75
2022/03/06 08:12:32;;;;;;;6.97;3.38;;;2.40;99.90;;;0.90;80.07;102261.72;4987390;28;20498;-76
2022/03/06 08:14:58;;;;;;;6.10;2.75;;;2.40;99.90;;;0.91;80.33;102253.97;4987052;28;20022;-75
2022/03/06 08:17:25;;;;;;;6.78;2.90;;;2.40;99.90;;;0.97;80.35;102259.28;4968789;28;20561;-78
2022/03/06 08:19:53;;;;;;;3.92;2.40;;;2.50;99.90;;;0.97;80.59;102259.28;4939101;28;20112;-78
2022/03/06 08:22:21;;;;;;;7.00;2.80;;;2.50;99.90;;;1.00;80.69;102254.13;4967107;28;20477;-77
2022/03/06 08:24:47;;;;;;;7.40;2.50;;;2.50;99.90;;;1.01;80.74;102260.19;4960087;28;20425;-76
2022/03/06 08:27:20;;;;;;;6.68;2.60;;;2.50;99.90;;;1.01;80.61;102260.19;4951586;28;20041;-76
2022/03/06 08:29:49;;;;;;;6.95;2.80;;;2.50;99.90;;;1.05;80.35;102255.94;4941626;28;20401;-78
2022/03/06 08:32:16;;;;;;;5.00;2.33;;;2.60;99.90;;;1.09;79.31;102257.72;4944440;28;20042;-77
2022/03/06 08:34:42;;;;;;;5.82;2.50;;;2.60;99.90;;;1.13;79.15;102263.00;4958835;28;20038;-77
2022/03/06 08:37:09;;;;;;;7.50;2.55;;;2.60;99.90;;;1.20;78.48;102261.38;4952297;28;20402;-79
2022/03/06 08:39:35;;;;;;;5.20;2.35;;;2.70;99.90;;;1.28;78.53;102259.78;4958325;28;20041;-78
2022/03/06 08:42:01;;;;;;;6.03;2.20;;;2.70;99.90;;;1.31;78.30;102253.75;4976726;28;20033;-77
2022/03/06 08:44:27;;;;;;;4.15;2.25;;;2.80;99.90;;;1.38;78.01;102256.50;4966439;28;20390;-77
2022/03/06 08:46:53;;;;;;;5.05;2.17;;;2.80;99.90;;;1.41;77.38;102247.88;4959921;28;20027;-78
2022/03/06 08:49:19;;;;;;;3.88;2.00;;;2.90;99.90;;;1.47;76.76;102252.28;4962701;28;20041;-77
2022/03/06 08:51:46;;;;;;;4.95;2.20;;;2.90;99.90;;;1.50;76.49;102260.13;4960399;28;20038;-77
2022/03/06 08:54:15;;;;;;;4.47;2.00;;;3.00;99.90;;;1.59;76.08;102255.06;4941421;28;20034;-78
2022/03/06 08:56:43;;;;;;;6.70;2.50;;;3.00;99.90;;;1.67;75.78;102255.19;4881833;28;20045;-78
2022/03/06 08:59:09;;;;;;;5.90;2.00;;;3.10;99.90;;;1.60;74.75;102260.28;4951535;28;20031;-76
2022/03/06 09:01:45;;;;;;;6.63;1.83;;;3.10;99.90;;;1.63;74.54;102259.47;4974752;28;20059;-77
2022/03/06 09:04:12;;;;;;;4.40;1.67;;;3.20;99.90;;;1.68;74.64;102260.38;4933619;28;20055;-78
2022/03/06 09:06:39;;;;;;;5.72;1.85;;;3.20;99.90;;;1.64;73.11;102262.09;4918832;28;20076;-77
2022/03/06 09:09:07;;;;;;;2.83;1.42;;;3.20;99.90;;;1.63;71.88;102262.06;4968235;28;20030;-78
2022/03/06 09:11:37;;;;;;;4.57;1.60;;;3.20;99.90;;;1.50;72.33;102263.59;4943161;28;20076;-75
2022/03/06 09:14:03;;;;;;;4.97;1.95;;;3.10;99.90;;;1.48;72.68;102269.63;4947920;28;20491;-76
2022/03/06 09:16:30;;;;;;;3.58;1.30;;;3.10;99.90;;;1.54;73.17;102259.34;4969184;28;20022;-75
2022/03/06 09:18:56;;;;;;;4.03;1.40;;;3.20;99.90;;;1.62;72.37;102265.47;4966501;28;20030;-76
2022/03/06 09:21:25;;;;;;;8.15;1.80;;;3.20;99.90;;;1.70;71.69;102263.00;4968509;28;20034;-76
2022/03/06 09:23:54;;;;;;;6.43;1.80;;;3.20;99.90;;;1.73;71.16;102263.03;4961134;28;20301;-75
2022/03/06 09:26:20;;;;;;;8.63;2.72;;;3.30;99.90;;;1.82;72.14;102265.81;4969781;28;20019;-76
2022/03/06 09:28:46;;;;;;;5.40;2.35;;;3.30;99.90;;;1.90;73.33;102271.09;4970107;28;20102;-75
2022/03/06 09:31:12;;;;;;;4.38;2.00;;;3.40;99.90;;;1.92;73.38;102271.97;4960716;28;20071;-75
2022/03/06 09:33:39;;;;;;;4.22;1.65;;;3.40;99.90;;;1.94;72.48;102262.50;4966318;28;20042;-75
2022/03/06 09:36:08;;;;;;;4.78;2.03;;;3.40;99.90;;;1.90;72.35;102271.97;4993873;28;20035;-74
2022/03/06 09:38:37;;;;;;;7.20;1.77;;;3.40;99.90;;;1.93;72.57;102276.34;4965451;28;20038;-75
2022/03/06 09:41:06;;;;;;;5.05;1.63;;;3.40;99.90;;;1.93;73.09;102278.94;4965081;28;22472;-75
2022/03/06 09:43:33;;;;;;;7.55;2.47;;;3.30;99.90;;;1.76;73.18;102266.56;4948064;28;20403;-75
2022/03/06 09:46:07;;;;;;;5.93;1.83;;;3.30;99.90;;;1.70;73.07;102271.66;4974482;28;20042;-75
2022/03/06 09:48:37;;;;;;;7.18;1.80;;;3.40;99.90;;;1.86;73.33;102275.38;4957995;28;20022;-75
2022/03/06 09:51:05;;;;;;;6.53;1.80;;;3.40;99.90;;;1.94;73.59;102265.09;4948170;28;20042;-75
2022/03/06 09:53:34;;;;;;;5.13;1.65;;;3.50;99.90;;;2.00;74.21;102268.63;4950519;28;20030;-76
2022/03/06 09:56:03;;;;;;;3.45;1.90;;;3.60;99.90;;;2.22;72.96;102274.13;4968116;28;20019;-75
2022/03/06 09:58:36;;;;;;;4.03;1.98;;;3.50;99.90;;;2.03;72.16;102276.50;4968800;28;20510;-76
2022/03/06 10:01:06;;;;;;;4.45;1.45;;;3.60;99.90;;;1.97;71.36;102272.94;4986529;28;20089;-75
2022/03/06 10:03:37;;;;;;;6.32;1.67;;;3.60;99.90;;;2.18;72.07;102283.63;4991514;28;20491;-75
2022/03/06 10:06:11;;;;;;;8.73;1.90;;;3.70;99.90;;;2.16;71.03;102277.53;4988103;28;20089;-75
2022/03/06 10:08:41;;;;;;;3.92;1.98;;;3.80;99.90;;;2.42;71.86;102280.44;4938963;28;20414;-75
2022/03/06 10:11:10;;;;;;;6.03;1.98;;;3.80;99.90;;;2.42;69.96;102277.84;4968181;28;20050;-75
2022/03/06 10:13:46;;;;;;;5.05;1.52;;;3.80;99.90;;;2.35;68.53;102281.19;4968649;28;20089;-75
2022/03/06 10:16:19;;;;;;;6.88;2.53;;;3.80;99.90;;;2.36;68.52;102287.31;4969432;28;20026;-77
2022/03/06 10:18:55;;;;;;;2.83;1.60;;;3.90;99.90;;;2.42;68.84;102293.44;4971772;28;20046;-75
2022/03/06 10:21:34;;;;;;;3.80;1.67;;;3.80;99.90;;;2.16;68.12;102305.22;4970250;28;20019;-75
2022/03/06 10:24:08;;;;;;;6.93;2.20;;;3.80;99.90;;;2.24;69.15;102301.88;4971828;28;20038;-74
2022/03/06 10:26:37;;;;;;;3.38;1.63;;;3.80;99.90;;;2.13;68.25;102303.44;4970827;28;20491;-74